Nearby METAR Reports

 

KVCT - Victoria, Texas, USA
Distance from station: E 12mi, 20km
Updated: 08/15/2018 9:22am
Mostly cloudy
Mostly cloudy
 Wind from S
Wind: S 10 mph , 17 km/h
Temperature: 86°F , 30°C
Heat Index: 95°F , 35°C
Dew Point: 75°F , 24°C
Humidity: 70%
Barometer: 29.99 inHg , 1015.6 hPa
Clouds: Mostly cloudy
Visibility: 10 miles , 16 km
Cloud details: Mostly cloudy 4500 ft
2018/08/15 14:22 KVCT 151422Z 19009KT 10SM BKN045 30/24 A2999 RMK AO2 T03000239
KPKV - Port Lavaca, Texas, USA
Distance from station: ESE 31mi, 50km
Updated: 08/15/2018 9:15am
Clear
Clear
 Wind from S
Wind: S 9 mph , 15 km/h
Temperature: 88°F , 31°C
Heat Index: 103°F , 39°C
Dew Point: 79°F , 26°C
Humidity: 75%
Barometer: 30.00 inHg , 1015.9 hPa
Clouds: Clear
Visibility: 10 miles , 16 km
2018/08/15 14:15 KPKV 151415Z AUTO 17008KT 10SM CLR 31/26 A3000 RMK AO2 T03110255
 
KT20 - Gonzales Muni, Texas, USA
Distance from station: NNW 50mi, 81km
Updated: 08/15/2018 9:15am
Partly cloudy
Partly cloudy
 Wind from S
Wind: S 8 mph , 13 km/h
Temperature: 82°F , 28°C
Heat Index: 91°F , 33°C
Dew Point: 79°F , 26°C
Humidity: 89%
Barometer: 30.01 inHg , 1016.3 hPa
Clouds: Partly cloudy
Visibility: 10 miles , 16 km
Cloud details: Partly cloudy 1000 ft
Partly cloudy 2400 ft
Partly cloudy 3000 ft
2018/08/15 14:15 KT20 151415Z AUTO 17007KT 10SM SCT010 SCT024 SCT030 28/26 A3001 RMK AO2 T02800255
KBEA - Beeville Muni, Texas, USA
Distance from station: SW 51mi, 83km
Updated: 08/15/2018 9:15am
Mostly cloudy
Mostly cloudy
 Wind from S
Wind: S 14 mph , 22 km/h, Gust: 20 mph , 31 km/h
Temperature: 82°F , 28°C
Heat Index: 89°F , 32°C
Dew Point: 75°F , 24°C
Humidity: 79%
Barometer: 29.99 inHg , 1015.6 hPa
Clouds: Mostly cloudy
Visibility: 10 miles , 16 km
Cloud details: Mostly cloudy 1500 ft
Mostly cloudy 2100 ft
2018/08/15 14:15 KBEA 151415Z AUTO 18012G17KT 10SM BKN015 BKN021 28/24 A2999 RMK AO2 T02800242
 
KRKP - Rockport, Texas, USA
Distance from station: S 53mi, 86km
Updated: 08/15/2018 8:53am
Few Clouds
Few Clouds
 Wind from SSE
Wind: SSE 9 mph , 15 km/h
Temperature: 84°F , 29°C
Heat Index: 92°F , 33°C
Dew Point: 75°F , 24°C
Humidity: 74%
Barometer: 29.98 inHg , 1015.2 hPa
Clouds: Few Clouds
Visibility: 8 miles , 13 km
Cloud details: Few Clouds 1900 ft
2018/08/15 13:53 KRKP 151353Z AUTO 16008KT 8SM FEW019 29/24 A2998 RMK AO2 SLP153 T02940244
KPSX - Palacios, Texas, USA
Distance from station: E 55mi, 88km
Updated: 08/15/2018 8:53am
Few Clouds
Few Clouds
 Wind from S
Wind: S 8 mph , 13 km/h
Temperature: 88°F , 31°C
Heat Index: 103°F , 39°C
Dew Point: 79°F , 26°C
Humidity: 75%
Barometer: 30.00 inHg , 1015.9 hPa
Clouds: Few Clouds
Visibility: 10 miles , 16 km
Cloud details: Few Clouds 7500 ft
2018/08/15 13:53 KPSX 151353Z AUTO 18007KT 10SM FEW075 31/26 A3000 RMK AO2 SLP157 T03060261
 
KTFP - Ingleside/Tp Mcc, Texas, USA
Distance from station: S 65mi, 104km
Updated: 08/15/2018 9:15am
Partly cloudy
Partly cloudy
 Wind from SSW
Wind: SSW 12 mph , 19 km/h, Gust: 18 mph , 30 km/h
Temperature: 86°F , 30°C
Heat Index: 97°F , 36°C
Dew Point: 77°F , 25°C
Humidity: 75%
Barometer: 29.98 inHg , 1015.2 hPa
Clouds: Partly cloudy
Visibility: 10 miles , 16 km
Cloud details: Partly cloudy 1700 ft
Partly cloudy 2400 ft
2018/08/15 14:15 KTFP 151415Z AUTO 21010G16KT 10SM SCT017 SCT024 30/25 A2998 RMK AO2 T02980249 PNO
K66R - Columbus, Texas, USA
Distance from station: NE 66mi, 106km
Updated: 08/15/2018 9:15am
Clear
Clear
 Wind from S
Wind: S 6 mph , 9 km/h
Temperature: 82°F , 28°C
Heat Index: 89°F , 32°C
Dew Point: 75°F , 24°C
Humidity: 79%
Barometer: 30.03 inHg , 1016.9 hPa
Clouds: Clear
Visibility: 10 miles , 16 km
2018/08/15 14:15 K66R 151415Z AUTO 19005KT 10SM CLR 28/24 A3003 RMK AO2 T02820240
 
KARM - Wharton, Texas, USA
Distance from station: ENE 66mi, 106km
Updated: 08/15/2018 9:15am
Clear
Clear
 Wind from S
Wind: S 8 mph , 13 km/h
Temperature: 84°F , 29°C
Heat Index: 90°F , 32°C
Dew Point: 73°F , 23°C
Humidity: 70%
Barometer: 30.01 inHg , 1016.3 hPa
Clouds: Clear
Visibility: 10 miles , 16 km
2018/08/15 14:15 KARM 151415Z AUTO 17007KT 10SM CLR 29/23 A3001 RMK AO2 T02930234
KRAS - Port Aransas, Texas, USA
Distance from station: S 71mi, 115km
Updated: 08/15/2018 9:15am
Clear
Clear
 Wind from S
Wind: S 10 mph , 17 km/h
Temperature: 86°F , 30°C
Heat Index: 99°F , 37°C
Dew Point: 79°F , 26°C
Humidity: 79%
Barometer: 29.99 inHg , 1015.6 hPa
Clouds: Clear
Visibility: 10 miles , 16 km
2018/08/15 14:15 KRAS 151415Z AUTO 17009KT 10SM CLR 30/26 A2999 RMK AO2 T02960257
 
KELA - Eagle Lake, Texas, USA
Distance from station: NE 72mi, 115km
Updated: 08/15/2018 9:15am
Clear
Clear
 Wind from SSW
Wind: SSW 5 mph , 7 km/h
Temperature: 84°F , 29°C
Heat Index: 94°F , 34°C
Dew Point: 77°F , 25°C
Humidity: 79%
Barometer: 30.01 inHg , 1016.3 hPa
Clouds: Clear
Visibility: 10 miles , 16 km
2018/08/15 14:15 KELA 151415Z AUTO 21004KT 10SM CLR 29/25 A3001 RMK AO2 T02930254
K3T5 - La Grange, Texas, USA
Distance from station: N 73mi, 118km
Updated: 08/15/2018 9:15am
Mostly cloudy
Mostly cloudy
 Wind from S
Wind: S 7 mph , 11 km/h
Temperature: 84°F , 29°C
Heat Index: 96°F , 36°C
Dew Point: 79°F , 26°C
Humidity: 84%
Barometer: 30.00 inHg , 1015.9 hPa
Clouds: Mostly cloudy
Visibility: 10 miles , 16 km
Cloud details: Mostly cloudy 1400 ft
Mostly cloudy 1900 ft
Mostly cloudy 2500 ft
2018/08/15 14:15 K3T5 151415Z AUTO 19006KT 10SM BKN014 BKN019 BKN025 29/26 A3000 RMK AO2 T02870255
 
KBYY - Bay City, Texas, USA
Distance from station: E 77mi, 124km
Updated: 08/15/2018 9:15am
Clear
Clear
 Wind from SSW
Wind: SSW 5 mph , 7 km/h
Temperature: 86°F , 30°C
Heat Index: 97°F , 36°C
Dew Point: 77°F , 25°C
Humidity: 75%
Barometer: 30.01 inHg , 1016.3 hPa
Clouds: Clear
Visibility: 10 miles , 16 km
2018/08/15 14:15 KBYY 151415Z AUTO 20004KT 10SM CLR 30/25 A3001 RMK AO2 T02970256
KCRP - Corpus Christi, Texas, USA
Distance from station: SSW 78mi, 126km
Updated: 08/15/2018 8:51am
Mostly cloudy
Mostly cloudy
 Wind from SSE
Wind: SSE 12 mph , 19 km/h, Gust: 20 mph , 31 km/h
Temperature: 82°F , 28°C
Heat Index: 91°F , 33°C
Dew Point: 79°F , 26°C
Humidity: 89%
Barometer: 29.98 inHg , 1015.2 hPa
Clouds: Mostly cloudy
Visibility: 10 miles , 16 km
Cloud details: Few Clouds 1500 ft
Mostly cloudy 25000 ft
2018/08/15 13:51 KCRP 151351Z 16010G17KT 10SM FEW015 BKN250 28/26 A2998 RMK AO2 SLP150 T02830261
 
KNGP - C. Christi Nas, Texas, USA
Distance from station: S 81mi, 130km
Updated: 08/15/2018 8:56am
Partly cloudy
Partly cloudy
 Wind from S
Wind: S 13 mph , 20 km/h
Temperature: 86°F , 30°C
Heat Index: 102°F , 39°C
Dew Point: 81°F , 27°C
Humidity: 84%
Barometer: 29.98 inHg , 1015.2 hPa
Clouds: Partly cloudy
Visibility: 10 miles , 16 km
Cloud details: Few Clouds 1800 ft
Partly cloudy 35000 ft
2018/08/15 13:56 KNGP 151356Z 18011KT 10SM FEW018 SCT350 30/27 A2998 RMK SLP150 T03000267
KRBO - Robstown/Nueces, Texas, USA
Distance from station: SSW 81mi, 130km
Updated: 08/15/2018 9:15am
Partly cloudy
Partly cloudy
 Wind from SSE
Wind: SSE 9 mph , 15 km/h, Gust: 17 mph , 28 km/h
Temperature: 82°F , 28°C
Heat Index: 90°F , 32°C
Dew Point: 77°F , 25°C
Humidity: 84%
Barometer: 29.98 inHg , 1015.2 hPa
Clouds: Partly cloudy
Visibility: 10 miles , 16 km
Cloud details: Partly cloudy 1500 ft
Partly cloudy 2000 ft
Partly cloudy 2700 ft
2018/08/15 14:15 KRBO 151415Z AUTO 16008G15KT 10SM SCT015 SCT020 SCT027 28/25 A2998 RMK AO2 T02800246
 
KBAZ - New Braunfels, Texas, USA
Distance from station: NW 81mi, 131km
Updated: 08/15/2018 8:51am
Overcast
Overcast
 Wind from S
Wind: S 13 mph , 20 km/h, Gust: 18 mph , 30 km/h
Temperature: 82°F , 28°C
Heat Index: 87°F , 31°C
Dew Point: 73°F , 23°C
Humidity: 74%
Barometer: 30.01 inHg , 1016.3 hPa
Clouds: Overcast
Visibility: 10 miles , 16 km
Cloud details: Mostly cloudy 1300 ft
Overcast 2300 ft
2018/08/15 13:51 KBAZ 151351Z 18011G16KT 10SM BKN013 OVC023 28/23 A3001 RMK AO2 SLP153 T02780233
KRND - Randolph Afb, Texas, USA
Distance from station: NW 82mi, 132km
Updated: 08/15/2018 8:56am
Overcast
Overcast
 Wind from S
Wind: S 7 mph , 11 km/h
Temperature: 79°F , 26°C
Dew Point: 75°F , 24°C
Humidity: 89%
Barometer: 30.02 inHg , 1016.6 hPa
Clouds: Overcast
Visibility: 10 miles , 16 km
Cloud details: Mostly cloudy 1000 ft
Overcast 1500 ft
2018/08/15 13:56 KRND 151356Z AUTO 17006KT 10SM BKN010 OVC015 26/24 A3002 RMK AO2 BKN V OVC CIG 008 RWY33R SLP157 T02590237
 
KHYI - San Marcos, Texas, USA
Distance from station: NNW 84mi, 135km
Updated: 08/15/2018 8:56am
Few Clouds
Few Clouds
 Wind from S
Wind: S 9 mph , 15 km/h
Temperature: 79°F , 26°C
Dew Point: 75°F , 24°C
Humidity: 89%
Barometer: 30.03 inHg , 1016.9 hPa
Clouds: Few Clouds
Visibility: 10 miles , 16 km
Cloud details: Few Clouds 2300 ft
2018/08/15 13:56 KHYI 151356Z 18008KT 10SM FEW023 26/24 A3003 RMK AO2 SLP158 T02610239 $
KPEZ - Pleasanton Muni, Texas, USA
Distance from station: W 84mi, 135km
Updated: 08/15/2018 9:15am
Mostly cloudy
Mostly cloudy
 Wind from SSE
Wind: SSE 8 mph , 13 km/h
Temperature: 81°F , 27°C
Heat Index: 87°F , 31°C
Dew Point: 75°F , 24°C
Humidity: 84%
Barometer: 30.00 inHg , 1015.9 hPa
Clouds: Mostly cloudy
Visibility: 10 miles , 16 km
Cloud details: Mostly cloudy 1300 ft
2018/08/15 14:15 KPEZ 151415Z AUTO 16007KT 140V200 10SM BKN013 27/24 A3000 RMK AO2 T02710239